sensor_id;sensor_type;location;lat;lon;timestamp;temperature;humidity
72604;DHT22;60645;56.968;24.196;2023-11-19T00:00:29;-0.10;95.70
72604;DHT22;60645;56.968;24.196;2023-11-19T00:02:56;0.00;95.60
72604;DHT22;60645;56.968;24.196;2023-11-19T00:05:23;0.00;95.50
72604;DHT22;60645;56.968;24.196;2023-11-19T00:07:50;0.00;95.50
72604;DHT22;60645;56.968;24.196;2023-11-19T00:10:17;0.00;95.70
72604;DHT22;60645;56.968;24.196;2023-11-19T00:12:48;0.00;95.70
72604;DHT22;60645;56.968;24.196;2023-11-19T00:15:15;-0.10;95.50
72604;DHT22;60645;56.968;24.196;2023-11-19T00:17:45;0.10;95.80
72604;DHT22;60645;56.968;24.196;2023-11-19T00:20:13;0.00;95.80
72604;DHT22;60645;56.968;24.196;2023-11-19T00:22:44;-0.10;95.70
72604;DHT22;60645;56.968;24.196;2023-11-19T00:25:13;0.00;95.50
72604;DHT22;60645;56.968;24.196;2023-11-19T00:27:40;0.00;95.50
72604;DHT22;60645;56.968;24.196;2023-11-19T00:30:11;0.00;95.80
72604;DHT22;60645;56.968;24.196;2023-11-19T00:32:39;0.00;95.50
72604;DHT22;60645;56.968;24.196;2023-11-19T00:35:06;-0.10;95.70
72604;DHT22;60645;56.968;24.196;2023-11-19T00:37:34;0.00;95.40
72604;DHT22;60645;56.968;24.196;2023-11-19T00:40:01;0.00;95.50
72604;DHT22;60645;56.968;24.196;2023-11-19T00:42:28;0.00;95.80
72604;DHT22;60645;56.968;24.196;2023-11-19T00:44:54;-0.10;95.90
72604;DHT22;60645;56.968;24.196;2023-11-19T00:47:22;0.00;95.90
72604;DHT22;60645;56.968;24.196;2023-11-19T00:49:48;-0.10;96.00
72604;DHT22;60645;56.968;24.196;2023-11-19T00:52:16;0.00;96.00
72604;DHT22;60645;56.968;24.196;2023-11-19T00:54:43;-0.10;95.90
72604;DHT22;60645;56.968;24.196;2023-11-19T00:57:10;0.00;95.70
72604;DHT22;60645;56.968;24.196;2023-11-19T00:59:37;-0.10;95.60
72604;DHT22;60645;56.968;24.196;2023-11-19T01:02:04;0.00;95.50
72604;DHT22;60645;56.968;24.196;2023-11-19T01:04:33;0.00;95.70
72604;DHT22;60645;56.968;24.196;2023-11-19T01:07:03;0.00;95.80
72604;DHT22;60645;56.968;24.196;2023-11-19T01:09:31;-0.10;95.70
72604;DHT22;60645;56.968;24.196;2023-11-19T01:12:02;0.00;95.80
72604;DHT22;60645;56.968;24.196;2023-11-19T01:14:30;-0.20;95.80
72604;DHT22;60645;56.968;24.196;2023-11-19T01:16:57;-0.10;95.80
72604;DHT22;60645;56.968;24.196;2023-11-19T01:19:24;0.00;96.00
72604;DHT22;60645;56.968;24.196;2023-11-19T01:21:51;0.00;96.00
72604;DHT22;60645;56.968;24.196;2023-11-19T01:24:18;0.00;96.20
72604;DHT22;60645;56.968;24.196;2023-11-19T01:26:45;-0.10;96.20
72604;DHT22;60645;56.968;24.196;2023-11-19T01:29:16;-0.10;96.20
72604;DHT22;60645;56.968;24.196;2023-11-19T01:31:43;-0.20;96.30
72604;DHT22;60645;56.968;24.196;2023-11-19T01:34:10;-0.20;96.30
72604;DHT22;60645;56.968;24.196;2023-11-19T01:36:38;-0.20;96.10
72604;DHT22;60645;56.968;24.196;2023-11-19T01:39:06;-0.40;96.10
72604;DHT22;60645;56.968;24.196;2023-11-19T01:41:36;-0.10;96.10
72604;DHT22;60645;56.968;24.196;2023-11-19T01:44:03;-0.30;96.40
72604;DHT22;60645;56.968;24.196;2023-11-19T01:46:32;-0.20;96.40
72604;DHT22;60645;56.968;24.196;2023-11-19T01:49:01;-0.10;96.30
72604;DHT22;60645;56.968;24.196;2023-11-19T01:51:29;-0.30;96.30
72604;DHT22;60645;56.968;24.196;2023-11-19T01:53:56;-0.10;96.10
72604;DHT22;60645;56.968;24.196;2023-11-19T01:56:24;-0.30;96.50
72604;DHT22;60645;56.968;24.196;2023-11-19T01:58:53;-0.40;96.60
72604;DHT22;60645;56.968;24.196;2023-11-19T02:01:20;-0.20;96.60
72604;DHT22;60645;56.968;24.196;2023-11-19T02:03:47;-0.20;96.60
72604;DHT22;60645;56.968;24.196;2023-11-19T02:06:14;-0.20;96.50
72604;DHT22;60645;56.968;24.196;2023-11-19T02:08:42;-0.30;96.60
72604;DHT22;60645;56.968;24.196;2023-11-19T02:11:09;-0.20;96.30
72604;DHT22;60645;56.968;24.196;2023-11-19T02:13:37;-0.30;96.40
72604;DHT22;60645;56.968;24.196;2023-11-19T02:16:04;-0.10;96.40
72604;DHT22;60645;56.968;24.196;2023-11-19T02:18:31;-0.20;96.50
72604;DHT22;60645;56.968;24.196;2023-11-19T02:20:58;-0.20;96.70
72604;DHT22;60645;56.968;24.196;2023-11-19T02:23:26;-0.30;96.80
72604;DHT22;60645;56.968;24.196;2023-11-19T02:28:23;-0.40;96.60
72604;DHT22;60645;56.968;24.196;2023-11-19T02:30:50;-0.40;97.00
72604;DHT22;60645;56.968;24.196;2023-11-19T02:33:17;-0.40;96.80
72604;DHT22;60645;56.968;24.196;2023-11-19T02:35:44;-0.20;96.70
72604;DHT22;60645;56.968;24.196;2023-11-19T02:38:11;-0.10;96.60
72604;DHT22;60645;56.968;24.196;2023-11-19T02:40:40;-0.20;96.80
72604;DHT22;60645;56.968;24.196;2023-11-19T02:43:07;-0.20;96.50
72604;DHT22;60645;56.968;24.196;2023-11-19T02:45:35;-0.40;97.00
72604;DHT22;60645;56.968;24.196;2023-11-19T02:48:02;-0.30;96.90
72604;DHT22;60645;56.968;24.196;2023-11-19T02:50:29;-0.40;97.20
72604;DHT22;60645;56.968;24.196;2023-11-19T02:52:56;-0.40;97.10
72604;DHT22;60645;56.968;24.196;2023-11-19T02:55:24;-0.40;97.20
72604;DHT22;60645;56.968;24.196;2023-11-19T02:57:51;-0.40;97.30
72604;DHT22;60645;56.968;24.196;2023-11-19T03:00:20;-0.40;97.50
72604;DHT22;60645;56.968;24.196;2023-11-19T03:02:51;-0.60;97.40
72604;DHT22;60645;56.968;24.196;2023-11-19T03:05:32;-0.50;97.40
72604;DHT22;60645;56.968;24.196;2023-11-19T03:07:59;-0.60;97.50
72604;DHT22;60645;56.968;24.196;2023-11-19T03:10:25;-0.60;97.50
72604;DHT22;60645;56.968;24.196;2023-11-19T03:12:52;-0.60;97.60
72604;DHT22;60645;56.968;24.196;2023-11-19T03:15:19;-0.60;97.70
72604;DHT22;60645;56.968;24.196;2023-11-19T03:17:47;-0.60;97.80
72604;DHT22;60645;56.968;24.196;2023-11-19T03:20:14;-0.70;97.80
72604;DHT22;60645;56.968;24.196;2023-11-19T03:22:43;-0.80;98.10
72604;DHT22;60645;56.968;24.196;2023-11-19T03:25:10;-0.80;98.00
72604;DHT22;60645;56.968;24.196;2023-11-19T03:27:37;-0.60;98.10
72604;DHT22;60645;56.968;24.196;2023-11-19T03:30:05;-0.60;98.10
72604;DHT22;60645;56.968;24.196;2023-11-19T03:32:32;-0.60;98.20
72604;DHT22;60645;56.968;24.196;2023-11-19T03:34:59;-0.70;98.10
72604;DHT22;60645;56.968;24.196;2023-11-19T03:37:26;-0.70;98.00
72604;DHT22;60645;56.968;24.196;2023-11-19T03:39:53;-0.60;98.00
72604;DHT22;60645;56.968;24.196;2023-11-19T03:42:20;-0.40;98.20
72604;DHT22;60645;56.968;24.196;2023-11-19T03:44:47;-0.70;98.10
72604;DHT22;60645;56.968;24.196;2023-11-19T03:47:16;-0.60;98.10
72604;DHT22;60645;56.968;24.196;2023-11-19T03:49:42;-0.50;98.10
72604;DHT22;60645;56.968;24.196;2023-11-19T03:52:10;-0.60;98.10
72604;DHT22;60645;56.968;24.196;2023-11-19T03:54:46;-0.60;98.20
72604;DHT22;60645;56.968;24.196;2023-11-19T03:57:13;-0.60;98.40
72604;DHT22;60645;56.968;24.196;2023-11-19T03:59:41;-0.70;98.10
72604;DHT22;60645;56.968;24.196;2023-11-19T04:02:08;-0.70;97.90
72604;DHT22;60645;56.968;24.196;2023-11-19T04:04:35;-0.70;98.00
72604;DHT22;60645;56.968;24.196;2023-11-19T04:07:01;-0.60;98.20
72604;DHT22;60645;56.968;24.196;2023-11-19T04:09:29;-0.40;97.90
72604;DHT22;60645;56.968;24.196;2023-11-19T04:11:57;-0.70;97.90
72604;DHT22;60645;56.968;24.196;2023-11-19T04:14:24;-0.50;97.80
72604;DHT22;60645;56.968;24.196;2023-11-19T04:16:51;-0.50;97.90
72604;DHT22;60645;56.968;24.196;2023-11-19T04:19:18;-0.60;98.00
72604;DHT22;60645;56.968;24.196;2023-11-19T04:21:45;-0.70;98.10
72604;DHT22;60645;56.968;24.196;2023-11-19T04:24:13;-0.70;98.20
72604;DHT22;60645;56.968;24.196;2023-11-19T04:26:41;-0.50;98.10
72604;DHT22;60645;56.968;24.196;2023-11-19T04:29:09;-0.40;97.90
72604;DHT22;60645;56.968;24.196;2023-11-19T04:31:36;-0.50;97.70
72604;DHT22;60645;56.968;24.196;2023-11-19T04:34:03;-0.40;97.70
72604;DHT22;60645;56.968;24.196;2023-11-19T04:36:30;-0.60;97.60
72604;DHT22;60645;56.968;24.196;2023-11-19T04:38:57;-0.70;98.00
72604;DHT22;60645;56.968;24.196;2023-11-19T04:41:23;-0.60;98.20
72604;DHT22;60645;56.968;24.196;2023-11-19T04:43:50;-0.50;98.10
72604;DHT22;60645;56.968;24.196;2023-11-19T04:46:17;-0.80;98.20
72604;DHT22;60645;56.968;24.196;2023-11-19T04:48:44;-0.60;98.00
72604;DHT22;60645;56.968;24.196;2023-11-19T04:51:11;-0.40;98.10
72604;DHT22;60645;56.968;24.196;2023-11-19T04:53:37;-0.40;98.00
72604;DHT22;60645;56.968;24.196;2023-11-19T04:56:08;-0.60;98.00
72604;DHT22;60645;56.968;24.196;2023-11-19T04:58:35;-0.40;98.00
72604;DHT22;60645;56.968;24.196;2023-11-19T05:01:03;-0.40;97.90
72604;DHT22;60645;56.968;24.196;2023-11-19T05:03:31;-0.60;97.90
72604;DHT22;60645;56.968;24.196;2023-11-19T05:05:58;-0.50;98.10
72604;DHT22;60645;56.968;24.196;2023-11-19T05:08:25;-0.50;98.00
72604;DHT22;60645;56.968;24.196;2023-11-19T05:10:52;-0.50;97.90
72604;DHT22;60645;56.968;24.196;2023-11-19T05:13:19;-0.50;98.00
72604;DHT22;60645;56.968;24.196;2023-11-19T05:15:46;-0.50;98.00
72604;DHT22;60645;56.968;24.196;2023-11-19T05:18:13;-0.40;97.90
72604;DHT22;60645;56.968;24.196;2023-11-19T05:20:40;-0.40;97.90
72604;DHT22;60645;56.968;24.196;2023-11-19T05:23:06;-0.60;97.70
72604;DHT22;60645;56.968;24.196;2023-11-19T05:25:47;-0.40;97.80
72604;DHT22;60645;56.968;24.196;2023-11-19T05:28:14;-0.50;97.80
72604;DHT22;60645;56.968;24.196;2023-11-19T05:30:41;-0.40;98.00
72604;DHT22;60645;56.968;24.196;2023-11-19T05:33:08;-0.50;97.80
72604;DHT22;60645;56.968;24.196;2023-11-19T05:35:35;-0.50;97.80
72604;DHT22;60645;56.968;24.196;2023-11-19T05:38:02;-0.50;97.90
72604;DHT22;60645;56.968;24.196;2023-11-19T05:40:29;-0.60;98.20
72604;DHT22;60645;56.968;24.196;2023-11-19T05:42:56;-0.50;98.20
72604;DHT22;60645;56.968;24.196;2023-11-19T05:45:23;-0.70;98.10
72604;DHT22;60645;56.968;24.196;2023-11-19T05:47:49;-0.70;98.20
72604;DHT22;60645;56.968;24.196;2023-11-19T05:50:18;-0.80;98.50
72604;DHT22;60645;56.968;24.196;2023-11-19T05:52:46;-0.60;98.40
72604;DHT22;60645;56.968;24.196;2023-11-19T05:55:12;-0.80;98.50
72604;DHT22;60645;56.968;24.196;2023-11-19T05:57:40;-0.70;98.70
72604;DHT22;60645;56.968;24.196;2023-11-19T06:00:10;-0.80;98.90
72604;DHT22;60645;56.968;24.196;2023-11-19T06:02:39;-0.70;98.90
72604;DHT22;60645;56.968;24.196;2023-11-19T06:05:06;-0.80;99.00
72604;DHT22;60645;56.968;24.196;2023-11-19T06:07:33;-0.70;98.80
72604;DHT22;60645;56.968;24.196;2023-11-19T06:10:01;-0.60;98.60
72604;DHT22;60645;56.968;24.196;2023-11-19T06:12:29;-0.70;98.60
72604;DHT22;60645;56.968;24.196;2023-11-19T06:14:55;-0.50;98.60
72604;DHT22;60645;56.968;24.196;2023-11-19T06:17:23;-0.70;98.60
72604;DHT22;60645;56.968;24.196;2023-11-19T06:19:50;-0.50;98.60
72604;DHT22;60645;56.968;24.196;2023-11-19T06:22:17;-0.50;98.50
72604;DHT22;60645;56.968;24.196;2023-11-19T06:24:44;-0.50;98.50
72604;DHT22;60645;56.968;24.196;2023-11-19T06:27:11;-0.60;98.30
72604;DHT22;60645;56.968;24.196;2023-11-19T06:29:38;-0.60;98.40
72604;DHT22;60645;56.968;24.196;2023-11-19T06:32:05;-0.40;98.60
72604;DHT22;60645;56.968;24.196;2023-11-19T06:34:35;-0.60;98.70
72604;DHT22;60645;56.968;24.196;2023-11-19T06:37:02;-0.90;98.60
72604;DHT22;60645;56.968;24.196;2023-11-19T06:39:30;-0.70;98.90
72604;DHT22;60645;56.968;24.196;2023-11-19T06:41:57;-0.70;98.90
72604;DHT22;60645;56.968;24.196;2023-11-19T06:44:24;-0.50;98.90
72604;DHT22;60645;56.968;24.196;2023-11-19T06:46:51;-0.70;98.60
72604;DHT22;60645;56.968;24.196;2023-11-19T06:49:18;-0.70;98.60
72604;DHT22;60645;56.968;24.196;2023-11-19T06:51:47;-0.60;98.60
72604;DHT22;60645;56.968;24.196;2023-11-19T06:54:14;-0.70;98.50
72604;DHT22;60645;56.968;24.196;2023-11-19T06:56:41;-0.50;98.40
72604;DHT22;60645;56.968;24.196;2023-11-19T06:59:08;-0.30;98.20
72604;DHT22;60645;56.968;24.196;2023-11-19T07:01:35;-0.30;98.00
72604;DHT22;60645;56.968;24.196;2023-11-19T07:04:03;-0.40;97.80
72604;DHT22;60645;56.968;24.196;2023-11-19T07:06:35;-0.50;98.10
72604;DHT22;60645;56.968;24.196;2023-11-19T07:09:02;-0.50;98.10
72604;DHT22;60645;56.968;24.196;2023-11-19T07:11:39;-0.40;98.10
72604;DHT22;60645;56.968;24.196;2023-11-19T07:14:07;-0.50;98.20
72604;DHT22;60645;56.968;24.196;2023-11-19T07:16:34;-0.50;98.20
72604;DHT22;60645;56.968;24.196;2023-11-19T07:19:01;-0.40;98.40
72604;DHT22;60645;56.968;24.196;2023-11-19T07:21:28;-0.50;98.30
72604;DHT22;60645;56.968;24.196;2023-11-19T07:23:55;-0.70;98.30
72604;DHT22;60645;56.968;24.196;2023-11-19T07:26:22;-0.50;98.20
72604;DHT22;60645;56.968;24.196;2023-11-19T07:28:50;-0.60;98.20
72604;DHT22;60645;56.968;24.196;2023-11-19T07:31:17;-0.50;98.10
72604;DHT22;60645;56.968;24.196;2023-11-19T07:33:46;-0.30;97.90
72604;DHT22;60645;56.968;24.196;2023-11-19T07:36:13;-0.30;97.80
72604;DHT22;60645;56.968;24.196;2023-11-19T07:38:39;-0.60;97.80
72604;DHT22;60645;56.968;24.196;2023-11-19T07:41:06;-0.40;98.00
72604;DHT22;60645;56.968;24.196;2023-11-19T07:43:35;-0.50;97.90
72604;DHT22;60645;56.968;24.196;2023-11-19T07:46:02;-0.50;97.90
72604;DHT22;60645;56.968;24.196;2023-11-19T07:48:31;-0.40;97.60
72604;DHT22;60645;56.968;24.196;2023-11-19T07:50:58;-0.20;97.70
72604;DHT22;60645;56.968;24.196;2023-11-19T07:53:24;-0.20;97.60
72604;DHT22;60645;56.968;24.196;2023-11-19T07:55:51;0.00;97.00
72604;DHT22;60645;56.968;24.196;2023-11-19T07:58:18;-0.10;96.70
72604;DHT22;60645;56.968;24.196;2023-11-19T08:00:45;-0.10;96.60
72604;DHT22;60645;56.968;24.196;2023-11-19T08:03:12;-0.20;96.70
72604;DHT22;60645;56.968;24.196;2023-11-19T08:05:39;-0.10;97.10
72604;DHT22;60645;56.968;24.196;2023-11-19T08:08:06;-0.30;96.90
72604;DHT22;60645;56.968;24.196;2023-11-19T08:10:33;-0.30;97.10
72604;DHT22;60645;56.968;24.196;2023-11-19T08:13:00;-0.10;96.90
72604;DHT22;60645;56.968;24.196;2023-11-19T08:15:27;-0.20;97.10
72604;DHT22;60645;56.968;24.196;2023-11-19T08:17:58;-0.10;96.70
72604;DHT22;60645;56.968;24.196;2023-11-19T08:20:25;-0.10;96.70
72604;DHT22;60645;56.968;24.196;2023-11-19T08:22:52;-0.10;96.40
72604;DHT22;60645;56.968;24.196;2023-11-19T08:25:19;-0.10;96.50
72604;DHT22;60645;56.968;24.196;2023-11-19T08:27:46;0.00;96.40
72604;DHT22;60645;56.968;24.196;2023-11-19T08:30:13;-0.10;96.30
72604;DHT22;60645;56.968;24.196;2023-11-19T08:32:40;-0.20;96.10
72604;DHT22;60645;56.968;24.196;2023-11-19T08:35:07;0.10;96.30
72604;DHT22;60645;56.968;24.196;2023-11-19T08:37:34;-0.10;95.90
72604;DHT22;60645;56.968;24.196;2023-11-19T08:40:03;0.00;96.10
72604;DHT22;60645;56.968;24.196;2023-11-19T08:42:31;0.00;96.30
72604;DHT22;60645;56.968;24.196;2023-11-19T08:44:57;-0.10;96.30
72604;DHT22;60645;56.968;24.196;2023-11-19T08:47:25;-0.10;96.30
72604;DHT22;60645;56.968;24.196;2023-11-19T08:49:52;0.10;95.90
72604;DHT22;60645;56.968;24.196;2023-11-19T08:52:22;-0.10;96.00
72604;DHT22;60645;56.968;24.196;2023-11-19T08:54:49;-0.10;95.90
72604;DHT22;60645;56.968;24.196;2023-11-19T08:57:16;-0.20;96.20
72604;DHT22;60645;56.968;24.196;2023-11-19T08:59:43;-0.10;95.80
72604;DHT22;60645;56.968;24.196;2023-11-19T09:02:12;0.00;95.70
72604;DHT22;60645;56.968;24.196;2023-11-19T09:04:39;0.00;95.60
72604;DHT22;60645;56.968;24.196;2023-11-19T09:07:07;0.00;95.40
72604;DHT22;60645;56.968;24.196;2023-11-19T09:09:36;0.10;95.20
72604;DHT22;60645;56.968;24.196;2023-11-19T09:12:03;0.00;95.50
72604;DHT22;60645;56.968;24.196;2023-11-19T09:14:32;0.00;95.30
72604;DHT22;60645;56.968;24.196;2023-11-19T09:16:59;0.00;94.50
72604;DHT22;60645;56.968;24.196;2023-11-19T09:19:26;0.00;94.60
72604;DHT22;60645;56.968;24.196;2023-11-19T09:21:53;0.20;95.10
72604;DHT22;60645;56.968;24.196;2023-11-19T09:24:20;0.10;95.30
72604;DHT22;60645;56.968;24.196;2023-11-19T09:26:47;0.30;94.90
72604;DHT22;60645;56.968;24.196;2023-11-19T09:29:14;0.20;94.60
72604;DHT22;60645;56.968;24.196;2023-11-19T09:31:43;0.20;94.50
72604;DHT22;60645;56.968;24.196;2023-11-19T09:34:10;0.40;93.70
72604;DHT22;60645;56.968;24.196;2023-11-19T09:36:37;0.50;93.30
72604;DHT22;60645;56.968;24.196;2023-11-19T09:39:04;0.50;93.40
72604;DHT22;60645;56.968;24.196;2023-11-19T09:41:31;0.60;92.90
72604;DHT22;60645;56.968;24.196;2023-11-19T09:43:59;0.50;92.90
72604;DHT22;60645;56.968;24.196;2023-11-19T09:46:26;0.20;93.50
72604;DHT22;60645;56.968;24.196;2023-11-19T09:48:53;0.10;94.10
72604;DHT22;60645;56.968;24.196;2023-11-19T09:51:23;0.40;94.20
72604;DHT22;60645;56.968;24.196;2023-11-19T09:53:50;0.50;93.90
72604;DHT22;60645;56.968;24.196;2023-11-19T09:56:17;0.20;93.60
72604;DHT22;60645;56.968;24.196;2023-11-19T09:58:44;0.70;93.10
72604;DHT22;60645;56.968;24.196;2023-11-19T10:01:11;0.30;92.60
72604;DHT22;60645;56.968;24.196;2023-11-19T10:03:41;0.60;92.40
72604;DHT22;60645;56.968;24.196;2023-11-19T10:06:10;0.60;92.40
72604;DHT22;60645;56.968;24.196;2023-11-19T10:08:37;0.50;91.90
72604;DHT22;60645;56.968;24.196;2023-11-19T10:11:06;0.60;91.60
72604;DHT22;60645;56.968;24.196;2023-11-19T10:13:35;0.60;91.50
72604;DHT22;60645;56.968;24.196;2023-11-19T10:16:09;0.40;92.00
72604;DHT22;60645;56.968;24.196;2023-11-19T10:18:45;0.70;91.20
72604;DHT22;60645;56.968;24.196;2023-11-19T10:21:12;0.60;91.40
72604;DHT22;60645;56.968;24.196;2023-11-19T10:23:49;0.80;91.00
72604;DHT22;60645;56.968;24.196;2023-11-19T10:26:20;0.90;90.90
72604;DHT22;60645;56.968;24.196;2023-11-19T10:28:47;1.00;89.90
72604;DHT22;60645;56.968;24.196;2023-11-19T10:31:15;1.20;89.10
72604;DHT22;60645;56.968;24.196;2023-11-19T10:33:42;1.20;88.90
72604;DHT22;60645;56.968;24.196;2023-11-19T10:36:12;0.90;89.20
72604;DHT22;60645;56.968;24.196;2023-11-19T10:38:39;0.90;90.00
72604;DHT22;60645;56.968;24.196;2023-11-19T10:41:06;1.10;89.70
72604;DHT22;60645;56.968;24.196;2023-11-19T10:43:43;1.20;89.00
72604;DHT22;60645;56.968;24.196;2023-11-19T10:46:11;1.10;89.50
72604;DHT22;60645;56.968;24.196;2023-11-19T10:48:39;1.00;89.30
72604;DHT22;60645;56.968;24.196;2023-11-19T10:51:06;1.10;89.40
72604;DHT22;60645;56.968;24.196;2023-11-19T10:53:37;0.90;88.10
72604;DHT22;60645;56.968;24.196;2023-11-19T10:56:10;0.90;88.30
72604;DHT22;60645;56.968;24.196;2023-11-19T10:58:38;0.90;88.70
72604;DHT22;60645;56.968;24.196;2023-11-19T11:01:13;1.10;88.80
72604;DHT22;60645;56.968;24.196;2023-11-19T11:03:42;1.20;88.80
72604;DHT22;60645;56.968;24.196;2023-11-19T11:06:13;1.10;88.20
72604;DHT22;60645;56.968;24.196;2023-11-19T11:08:40;1.00;87.80
72604;DHT22;60645;56.968;24.196;2023-11-19T11:11:07;0.80;87.70
72604;DHT22;60645;56.968;24.196;2023-11-19T11:13:34;1.00;87.40
72604;DHT22;60645;56.968;24.196;2023-11-19T11:16:02;0.80;88.00
72604;DHT22;60645;56.968;24.196;2023-11-19T11:18:31;1.10;87.70
72604;DHT22;60645;56.968;24.196;2023-11-19T11:21:03;0.80;87.40
72604;DHT22;60645;56.968;24.196;2023-11-19T11:31:39;0.90;87.10
72604;DHT22;60645;56.968;24.196;2023-11-19T11:39:15;0.80;87.10
72604;DHT22;60645;56.968;24.196;2023-11-19T11:41:42;0.90;87.30
72604;DHT22;60645;56.968;24.196;2023-11-19T11:44:09;0.90;87.30
72604;DHT22;60645;56.968;24.196;2023-11-19T11:49:04;1.10;86.80
72604;DHT22;60645;56.968;24.196;2023-11-19T11:54:11;0.80;87.10
72604;DHT22;60645;56.968;24.196;2023-11-19T11:56:38;0.80;86.70
72604;DHT22;60645;56.968;24.196;2023-11-19T11:59:20;0.80;87.00
72604;DHT22;60645;56.968;24.196;2023-11-19T12:01:59;0.70;86.90
72604;DHT22;60645;56.968;24.196;2023-11-19T12:04:26;0.80;87.00
72604;DHT22;60645;56.968;24.196;2023-11-19T12:07:04;0.90;87.20
72604;DHT22;60645;56.968;24.196;2023-11-19T12:09:32;0.80;87.10
72604;DHT22;60645;56.968;24.196;2023-11-19T12:12:21;0.60;87.10
72604;DHT22;60645;56.968;24.196;2023-11-19T12:18:09;0.60;87.40
72604;DHT22;60645;56.968;24.196;2023-11-19T12:20:17;0.80;87.30
72604;DHT22;60645;56.968;24.196;2023-11-19T12:23:00;1.00;87.40
72604;DHT22;60645;56.968;24.196;2023-11-19T12:25:33;0.90;86.70
72604;DHT22;60645;56.968;24.196;2023-11-19T12:28:00;0.80;86.90
72604;DHT22;60645;56.968;24.196;2023-11-19T12:30:31;1.00;86.60
72604;DHT22;60645;56.968;24.196;2023-11-19T12:32:58;0.80;86.60
72604;DHT22;60645;56.968;24.196;2023-11-19T12:35:25;0.80;86.30
72604;DHT22;60645;56.968;24.196;2023-11-19T12:37:53;0.70;86.60
72604;DHT22;60645;56.968;24.196;2023-11-19T12:40:20;1.00;85.80
72604;DHT22;60645;56.968;24.196;2023-11-19T12:42:51;0.80;85.70
72604;DHT22;60645;56.968;24.196;2023-11-19T12:45:18;0.70;85.40
72604;DHT22;60645;56.968;24.196;2023-11-19T12:47:47;1.00;85.80
72604;DHT22;60645;56.968;24.196;2023-11-19T12:50:15;0.80;85.60
72604;DHT22;60645;56.968;24.196;2023-11-19T12:52:54;0.80;85.30
72604;DHT22;60645;56.968;24.196;2023-11-19T12:55:30;0.90;84.90
72604;DHT22;60645;56.968;24.196;2023-11-19T12:57:59;0.60;84.80
72604;DHT22;60645;56.968;24.196;2023-11-19T13:00:26;0.70;84.90
72604;DHT22;60645;56.968;24.196;2023-11-19T13:02:54;0.70;85.00
72604;DHT22;60645;56.968;24.196;2023-11-19T13:05:26;0.70;84.90
72604;DHT22;60645;56.968;24.196;2023-11-19T13:10:29;0.70;85.30
72604;DHT22;60645;56.968;24.196;2023-11-19T13:13:00;0.60;85.10
72604;DHT22;60645;56.968;24.196;2023-11-19T13:15:27;0.70;85.10
72604;DHT22;60645;56.968;24.196;2023-11-19T13:17:54;0.50;84.30
72604;DHT22;60645;56.968;24.196;2023-11-19T13:20:21;0.50;84.10
72604;DHT22;60645;56.968;24.196;2023-11-19T13:22:57;0.40;84.10
72604;DHT22;60645;56.968;24.196;2023-11-19T13:25:24;0.50;83.40
72604;DHT22;60645;56.968;24.196;2023-11-19T13:27:51;0.40;82.40
72604;DHT22;60645;56.968;24.196;2023-11-19T13:30:18;0.30;82.20
72604;DHT22;60645;56.968;24.196;2023-11-19T13:32:48;0.30;82.00
72604;DHT22;60645;56.968;24.196;2023-11-19T13:35:15;0.10;82.50
72604;DHT22;60645;56.968;24.196;2023-11-19T13:37:44;0.00;82.50
72604;DHT22;60645;56.968;24.196;2023-11-19T13:40:11;0.00;82.90
72604;DHT22;60645;56.968;24.196;2023-11-19T13:42:44;0.00;82.80
72604;DHT22;60645;56.968;24.196;2023-11-19T13:45:11;0.00;83.20
72604;DHT22;60645;56.968;24.196;2023-11-19T13:47:40;-0.20;83.40
72604;DHT22;60645;56.968;24.196;2023-11-19T13:50:11;-0.10;83.10
72604;DHT22;60645;56.968;24.196;2023-11-19T13:52:38;-0.10;83.30
72604;DHT22;60645;56.968;24.196;2023-11-19T13:55:09;-0.10;83.60
72604;DHT22;60645;56.968;24.196;2023-11-19T13:57:36;-0.20;84.40
72604;DHT22;60645;56.968;24.196;2023-11-19T14:00:03;-0.30;84.30
72604;DHT22;60645;56.968;24.196;2023-11-19T14:02:33;-0.30;84.10
72604;DHT22;60645;56.968;24.196;2023-11-19T14:05:00;-0.30;84.00
72604;DHT22;60645;56.968;24.196;2023-11-19T14:07:27;-0.30;84.00
72604;DHT22;60645;56.968;24.196;2023-11-19T14:09:54;-0.30;84.00
72604;DHT22;60645;56.968;24.196;2023-11-19T14:12:21;-0.40;84.10
72604;DHT22;60645;56.968;24.196;2023-11-19T14:14:48;-0.50;84.30
72604;DHT22;60645;56.968;24.196;2023-11-19T14:17:15;-0.30;84.60
72604;DHT22;60645;56.968;24.196;2023-11-19T14:19:42;-0.30;84.90
72604;DHT22;60645;56.968;24.196;2023-11-19T14:22:09;-0.50;85.00
72604;DHT22;60645;56.968;24.196;2023-11-19T14:24:36;-0.60;85.20
72604;DHT22;60645;56.968;24.196;2023-11-19T14:27:03;-0.40;85.70
72604;DHT22;60645;56.968;24.196;2023-11-19T14:29:30;-0.60;85.80
72604;DHT22;60645;56.968;24.196;2023-11-19T14:31:57;-0.60;85.90
72604;DHT22;60645;56.968;24.196;2023-11-19T14:34:25;-0.60;86.30
72604;DHT22;60645;56.968;24.196;2023-11-19T14:36:55;-0.80;86.60
72604;DHT22;60645;56.968;24.196;2023-11-19T14:39:22;-0.70;86.70
72604;DHT22;60645;56.968;24.196;2023-11-19T14:41:49;-0.70;86.80
72604;DHT22;60645;56.968;24.196;2023-11-19T14:44:16;-0.90;86.30
72604;DHT22;60645;56.968;24.196;2023-11-19T14:46:43;-0.80;86.20
72604;DHT22;60645;56.968;24.196;2023-11-19T14:49:09;-0.80;86.00
72604;DHT22;60645;56.968;24.196;2023-11-19T14:51:37;-1.00;86.30
72604;DHT22;60645;56.968;24.196;2023-11-19T14:54:07;-1.00;86.70
72604;DHT22;60645;56.968;24.196;2023-11-19T14:56:33;-0.80;86.20
72604;DHT22;60645;56.968;24.196;2023-11-19T14:59:00;-0.90;86.10
72604;DHT22;60645;56.968;24.196;2023-11-19T15:01:27;-0.90;85.70
72604;DHT22;60645;56.968;24.196;2023-11-19T15:03:55;-0.80;85.70
72604;DHT22;60645;56.968;24.196;2023-11-19T15:06:25;-1.10;85.70
72604;DHT22;60645;56.968;24.196;2023-11-19T15:08:53;-1.20;85.80
72604;DHT22;60645;56.968;24.196;2023-11-19T15:11:21;-1.10;85.70
72604;DHT22;60645;56.968;24.196;2023-11-19T15:13:48;-1.00;86.00
72604;DHT22;60645;56.968;24.196;2023-11-19T15:16:16;-1.10;86.20
72604;DHT22;60645;56.968;24.196;2023-11-19T15:18:48;-1.20;86.10
72604;DHT22;60645;56.968;24.196;2023-11-19T15:21:16;-1.20;86.30
72604;DHT22;60645;56.968;24.196;2023-11-19T15:23:43;-1.30;86.90
72604;DHT22;60645;56.968;24.196;2023-11-19T15:26:09;-1.40;87.40
72604;DHT22;60645;56.968;24.196;2023-11-19T15:28:37;-1.60;87.50
72604;DHT22;60645;56.968;24.196;2023-11-19T15:31:04;-1.50;88.00
72604;DHT22;60645;56.968;24.196;2023-11-19T15:33:31;-1.50;88.10
72604;DHT22;60645;56.968;24.196;2023-11-19T15:35:57;-1.40;87.10
72604;DHT22;60645;56.968;24.196;2023-11-19T15:38:27;-1.30;87.10
72604;DHT22;60645;56.968;24.196;2023-11-19T15:40:53;-1.50;87.10
72604;DHT22;60645;56.968;24.196;2023-11-19T15:43:21;-1.50;86.90
72604;DHT22;60645;56.968;24.196;2023-11-19T15:45:49;-1.30;86.50
72604;DHT22;60645;56.968;24.196;2023-11-19T15:48:16;-1.60;86.60
72604;DHT22;60645;56.968;24.196;2023-11-19T15:50:42;-1.40;86.00
72604;DHT22;60645;56.968;24.196;2023-11-19T15:53:11;-1.40;85.90